Time;durP1;ratioP1;P1;durP2;ratioP2;P2;SDS_P1;SDS_P2;PMS_P1;PMS_P2;Temp;Humidity;BMP_temperature;BMP_pressure;BME280_temperature;BME280_humidity;BME280_pressure;Samples;Min_cycle;Max_cycle;Signal;HPM_P1;HPM_P2
2022/10/15 00:00:15;;;;;;;;;;;;;;;;;;2098119;28;20045;-56
2022/10/15 00:01:16;;;;;;;;;;;;;;;;;;2098107;28;20365;-56
2022/10/15 00:02:17;;;;;;;;;;;;;;;;;;2097880;28;20376;-56
2022/10/15 00:03:18;;;;;;;;;;;;;;;;;;2106418;28;19924;-56
2022/10/15 00:04:18;;;;;;;;;;;;;;;;;;2106253;28;19966;-56
2022/10/15 00:05:19;;;;;;;;;;;;;;;;;;2106418;28;19919;-56
2022/10/15 00:06:20;;;;;;;;;;;;;;;;;;2106317;28;19920;-56
2022/10/15 00:07:21;;;;;;;;;;;;;;;;;;2106238;28;19963;-57
2022/10/15 00:08:22;;;;;;;;;;;;;;;;;;2106283;28;19955;-56
2022/10/15 00:09:23;;;;;;;;;;;;;;;;;;2106288;28;19927;-56
2022/10/15 00:10:24;;;;;;;;;;;;;;;;;;2099871;28;19920;-56
2022/10/15 00:11:24;;;;;;;;;;;;;;;;;;2098054;28;19920;-56
2022/10/15 00:12:25;;;;;;;;;;;;;;;;;;2099362;28;19920;-56
2022/10/15 00:13:26;;;;;;;;;;;;;;;;;;2099381;28;19927;-56
2022/10/15 00:14:27;;;;;;;;;;;;;;;;;;2099340;28;19921;-56
2022/10/15 00:15:28;;;;;;;;;;;;;;;;;;2099556;28;19920;-56
2022/10/15 00:16:29;;;;;;;;;;;;;;;;;;2099482;28;19920;-56
2022/10/15 00:17:30;;;;;;;;;;;;;;;;;;2099478;28;20404;-56
2022/10/15 00:18:31;;;;;;;;;;;;;;;;;;2099417;28;19920;-56
2022/10/15 00:19:32;;;;;;;;;;;;;;;;;;2099432;28;19969;-56
2022/10/15 00:20:33;;;;;;;;;;;;;;;;;;2099510;28;20384;-56
2022/10/15 00:21:34;;;;;;;;;;;;;;;;;;2099318;28;19972;-56
2022/10/15 00:22:34;;;;;;;;;;;;;;;;;;2099354;28;19959;-56
2022/10/15 00:23:35;;;;;;;;;;;;;;;;;;2099520;28;19924;-56
2022/10/15 00:24:36;;;;;;;;;;;;;;;;;;2099358;28;19982;-56
2022/10/15 00:25:37;;;;;;;;;;;;;;;;;;2099374;28;20065;-56
2022/10/15 00:26:38;;;;;;;;;;;;;;;;;;2099311;28;20007;-56
2022/10/15 00:27:39;;;;;;;;;;;;;;;;;;2099346;28;20293;-56
2022/10/15 00:28:39;;;;;;;;;;;;;;;;;;2099510;28;20416;-56
2022/10/15 00:29:40;;;;;;;;;;;;;;;;;;2099348;28;19970;-56
2022/10/15 00:30:41;;;;;;;;;;;;;;;;;;2099289;28;19924;-56
2022/10/15 00:31:42;;;;;;;;;;;;;;;;;;2099197;28;19921;-56
2022/10/15 00:32:43;;;;;;;;;;;;;;;;;;2099454;28;19979;-56
2022/10/15 00:33:43;;;;;;;;;;;;;;;;;;2099216;28;20031;-56
2022/10/15 00:34:44;;;;;;;;;;;;;;;;;;2099278;28;19977;-56
2022/10/15 00:35:45;;;;;;;;;;;;;;;;;;2099281;28;20365;-56
2022/10/15 00:36:46;;;;;;;;;;;;;;;;;;2099359;28;20475;-56
2022/10/15 00:37:47;;;;;;;;;;;;;;;;;;2099225;28;20366;-56
2022/10/15 00:38:48;;;;;;;;;;;;;;;;;;2099368;28;20027;-56
2022/10/15 00:39:48;;;;;;;;;;;;;;;;;;2099305;28;19954;-56
2022/10/15 00:40:49;;;;;;;;;;;;;;;;;;2099389;28;19943;-56
2022/10/15 00:41:50;;;;;;;;;;;;;;;;;;2099331;28;20289;-56
2022/10/15 00:42:51;;;;;;;;;;;;;;;;;;2099176;28;20393;-56
2022/10/15 00:43:51;;;;;;;;;;;;;;;;;;2099199;28;19920;-56
2022/10/15 00:44:52;;;;;;;;;;;;;;;;;;2099194;28;19927;-56
2022/10/15 00:45:53;;;;;;;;;;;;;;;;;;2099333;28;19920;-56
2022/10/15 00:46:54;;;;;;;;;;;;;;;;;;2099135;28;19962;-56
2022/10/15 00:47:55;;;;;;;;;;;;;;;;;;2099195;28;19920;-56
2022/10/15 00:48:56;;;;;;;;;;;;;;;;;;2099284;28;19947;-56
2022/10/15 00:49:56;;;;;;;;;;;;;;;;;;2099187;28;20285;-56
2022/10/15 00:50:59;;;;;;;;;;;;;;;;;;2099318;28;19929;-56
2022/10/15 00:51:59;;;;;;;;;;;;;;;;;;2099207;28;19927;-56
2022/10/15 00:53:00;;;;;;;;;;;;;;;;;;2099337;28;19920;-56
2022/10/15 00:54:01;;;;;;;;;;;;;;;;;;2099087;28;19953;-56
2022/10/15 00:55:02;;;;;;;;;;;;;;;;;;2099221;28;20416;-56
2022/10/15 00:56:03;;;;;;;;;;;;;;;;;;2099166;28;19921;-56
2022/10/15 00:57:04;;;;;;;;;;;;;;;;;;2099124;28;20266;-56
2022/10/15 00:58:05;;;;;;;;;;;;;;;;;;2099100;28;19971;-56
2022/10/15 00:59:05;;;;;;;;;;;;;;;;;;2103969;28;20487;-56
2022/10/15 01:00:06;;;;;;;;;;;;;;;;;;2107416;28;20016;-56
2022/10/15 01:01:07;;;;;;;;;;;;;;;;;;2107580;28;20373;-56
2022/10/15 01:02:08;;;;;;;;;;;;;;;;;;2107415;28;20296;-55
2022/10/15 01:03:09;;;;;;;;;;;;;;;;;;2107401;28;19927;-56
2022/10/15 01:04:10;;;;;;;;;;;;;;;;;;2107574;28;20196;-56
2022/10/15 01:05:10;;;;;;;;;;;;;;;;;;2107409;28;19967;-56
2022/10/15 01:06:11;;;;;;;;;;;;;;;;;;2107584;28;19920;-56
2022/10/15 01:07:12;;;;;;;;;;;;;;;;;;2107406;28;20313;-56
2022/10/15 01:08:13;;;;;;;;;;;;;;;;;;2107542;28;19919;-56
2022/10/15 01:09:13;;;;;;;;;;;;;;;;;;2107510;28;19923;-56
2022/10/15 01:10:14;;;;;;;;;;;;;;;;;;2102206;28;20284;-56
2022/10/15 01:11:15;;;;;;;;;;;;;;;;;;2099157;28;19976;-56
2022/10/15 01:12:16;;;;;;;;;;;;;;;;;;2099118;28;20343;-56
2022/10/15 01:13:17;;;;;;;;;;;;;;;;;;2099028;28;19928;-56
2022/10/15 01:14:18;;;;;;;;;;;;;;;;;;2098883;28;19928;-56
2022/10/15 01:15:18;;;;;;;;;;;;;;;;;;2098986;28;19955;-56
2022/10/15 01:16:19;;;;;;;;;;;;;;;;;;2099035;28;19920;-56
2022/10/15 01:17:20;;;;;;;;;;;;;;;;;;2098947;28;19920;-56
2022/10/15 01:18:21;;;;;;;;;;;;;;;;;;2098971;28;19950;-56
2022/10/15 01:19:22;;;;;;;;;;;;;;;;;;2098990;28;19978;-56
2022/10/15 01:20:23;;;;;;;;;;;;;;;;;;2099036;28;19921;-56
2022/10/15 01:21:24;;;;;;;;;;;;;;;;;;2099017;28;20274;-56
2022/10/15 01:22:24;;;;;;;;;;;;;;;;;;2098688;28;19921;-56
2022/10/15 01:23:25;;;;;;;;;;;;;;;;;;2099000;28;20009;-56
2022/10/15 01:24:26;;;;;;;;;;;;;;;;;;2099129;28;20373;-56
2022/10/15 01:25:27;;;;;;;;;;;;;;;;;;2098907;28;19974;-56
2022/10/15 01:26:28;;;;;;;;;;;;;;;;;;2098869;28;19947;-56
2022/10/15 01:27:28;;;;;;;;;;;;;;;;;;2098914;28;19974;-56
2022/10/15 01:28:29;;;;;;;;;;;;;;;;;;2099153;28;19956;-56
2022/10/15 01:29:30;;;;;;;;;;;;;;;;;;2098929;28;20365;-56
2022/10/15 01:30:31;;;;;;;;;;;;;;;;;;2098920;28;19920;-56
2022/10/15 01:31:32;;;;;;;;;;;;;;;;;;2098921;28;19920;-56
2022/10/15 01:32:33;;;;;;;;;;;;;;;;;;2098932;28;20013;-56
2022/10/15 01:33:34;;;;;;;;;;;;;;;;;;2099055;28;19966;-56
2022/10/15 01:34:34;;;;;;;;;;;;;;;;;;2098842;28;19990;-56
2022/10/15 01:35:35;;;;;;;;;;;;;;;;;;2098896;28;19920;-56
2022/10/15 01:36:36;;;;;;;;;;;;;;;;;;2098913;28;19926;-56
2022/10/15 01:37:37;;;;;;;;;;;;;;;;;;2098989;28;20014;-56
2022/10/15 01:38:38;;;;;;;;;;;;;;;;;;2098928;28;19920;-56
2022/10/15 01:39:39;;;;;;;;;;;;;;;;;;2098887;28;20403;-56
2022/10/15 01:40:39;;;;;;;;;;;;;;;;;;2098835;28;19966;-56
2022/10/15 01:41:40;;;;;;;;;;;;;;;;;;2098922;28;19920;-56
2022/10/15 01:42:41;;;;;;;;;;;;;;;;;;2099002;28;19924;-56
2022/10/15 01:43:42;;;;;;;;;;;;;;;;;;2098824;28;19920;-56
2022/10/15 01:44:42;;;;;;;;;;;;;;;;;;2098976;28;19920;-56
2022/10/15 01:45:43;;;;;;;;;;;;;;;;;;2098759;28;19974;-56
2022/10/15 01:46:44;;;;;;;;;;;;;;;;;;2098961;28;19920;-56
2022/10/15 01:47:45;;;;;;;;;;;;;;;;;;2099001;28;20411;-56
2022/10/15 01:48:46;;;;;;;;;;;;;;;;;;2098953;28;19921;-56
2022/10/15 01:49:47;;;;;;;;;;;;;;;;;;2098838;28;19931;-56
2022/10/15 01:50:47;;;;;;;;;;;;;;;;;;2098822;28;19924;-56
2022/10/15 01:51:48;;;;;;;;;;;;;;;;;;2098801;28;19920;-55
2022/10/15 01:52:49;;;;;;;;;;;;;;;;;;2098765;28;19927;-56
2022/10/15 01:53:50;;;;;;;;;;;;;;;;;;2098795;28;20365;-56
2022/10/15 01:54:51;;;;;;;;;;;;;;;;;;2099847;28;19927;-56
2022/10/15 01:55:52;;;;;;;;;;;;;;;;;;2107246;28;19920;-56
2022/10/15 01:56:53;;;;;;;;;;;;;;;;;;2107020;28;19965;-56
2022/10/15 01:57:54;;;;;;;;;;;;;;;;;;2107132;28;19947;-56
2022/10/15 01:58:54;;;;;;;;;;;;;;;;;;2107177;28;19930;-56
2022/10/15 01:59:55;;;;;;;;;;;;;;;;;;2107113;28;20369;-56
2022/10/15 02:00:56;;;;;;;;;;;;;;;;;;2106977;28;19920;-56
2022/10/15 02:01:57;;;;;;;;;;;;;;;;;;2107032;28;19920;-56
2022/10/15 02:02:58;;;;;;;;;;;;;;;;;;2107261;28;19977;-56
2022/10/15 02:03:59;;;;;;;;;;;;;;;;;;2107029;28;19974;-56
2022/10/15 02:05:00;;;;;;;;;;;;;;;;;;2107114;28;20086;-56
2022/10/15 02:06:01;;;;;;;;;;;;;;;;;;2107057;28;19973;-56
2022/10/15 02:07:01;;;;;;;;;;;;;;;;;;2106967;28;20011;-56
2022/10/15 02:08:02;;;;;;;;;;;;;;;;;;2107107;28;19969;-56
2022/10/15 02:09:03;;;;;;;;;;;;;;;;;;2107212;28;20419;-56
2022/10/15 02:10:04;;;;;;;;;;;;;;;;;;2103320;28;20386;-56
2022/10/15 02:11:04;;;;;;;;;;;;;;;;;;2098708;28;19920;-56
2022/10/15 02:12:05;;;;;;;;;;;;;;;;;;2098754;28;19949;-56
2022/10/15 02:13:06;;;;;;;;;;;;;;;;;;2098928;28;19920;-56
2022/10/15 02:14:07;;;;;;;;;;;;;;;;;;2098575;28;19920;-56
2022/10/15 02:15:09;;;;;;;;;;;;;;;;;;2098569;28;19924;-56
2022/10/15 02:16:10;;;;;;;;;;;;;;;;;;2098683;28;20011;-56
2022/10/15 02:17:11;;;;;;;;;;;;;;;;;;2098551;28;19935;-56
2022/10/15 02:18:12;;;;;;;;;;;;;;;;;;2098727;28;19934;-56
2022/10/15 02:19:13;;;;;;;;;;;;;;;;;;2098595;28;19927;-56
2022/10/15 02:20:14;;;;;;;;;;;;;;;;;;2098769;28;20417;-56
2022/10/15 02:21:15;;;;;;;;;;;;;;;;;;2098714;28;19927;-56
2022/10/15 02:22:16;;;;;;;;;;;;;;;;;;2098562;28;19920;-56
2022/10/15 02:23:16;;;;;;;;;;;;;;;;;;2098567;28;19927;-56
2022/10/15 02:24:17;;;;;;;;;;;;;;;;;;2098753;28;19971;-56
2022/10/15 02:25:18;;;;;;;;;;;;;;;;;;2098657;28;19924;-56
2022/10/15 02:26:19;;;;;;;;;;;;;;;;;;2098562;28;19955;-56
2022/10/15 02:27:20;;;;;;;;;;;;;;;;;;2098636;28;20396;-56
2022/10/15 02:28:20;;;;;;;;;;;;;;;;;;2098474;28;19975;-56
2022/10/15 02:29:21;;;;;;;;;;;;;;;;;;2098689;28;19921;-56
2022/10/15 02:30:22;;;;;;;;;;;;;;;;;;2098580;28;19927;-56
2022/10/15 02:31:23;;;;;;;;;;;;;;;;;;2098549;28;19970;-56
2022/10/15 02:32:24;;;;;;;;;;;;;;;;;;2098428;28;19932;-56
2022/10/15 02:33:25;;;;;;;;;;;;;;;;;;2098546;28;19967;-56
2022/10/15 02:34:26;;;;;;;;;;;;;;;;;;2097765;28;19920;-56
2022/10/15 02:35:26;;;;;;;;;;;;;;;;;;2098482;28;19920;-56
2022/10/15 02:36:27;;;;;;;;;;;;;;;;;;2098539;28;19962;-56
2022/10/15 02:37:28;;;;;;;;;;;;;;;;;;2098490;28;20270;-56
2022/10/15 02:38:30;;;;;;;;;;;;;;;;;;2098652;28;19958;-56
2022/10/15 02:39:30;;;;;;;;;;;;;;;;;;2098466;28;19969;-56
2022/10/15 02:40:31;;;;;;;;;;;;;;;;;;2098421;28;20020;-56
2022/10/15 02:41:32;;;;;;;;;;;;;;;;;;2098464;28;19927;-56
2022/10/15 02:42:33;;;;;;;;;;;;;;;;;;2098488;28;19927;-56
2022/10/15 02:43:34;;;;;;;;;;;;;;;;;;2098422;28;20224;-56
2022/10/15 02:44:34;;;;;;;;;;;;;;;;;;2098739;28;19987;-56
2022/10/15 02:45:35;;;;;;;;;;;;;;;;;;2098458;28;20388;-56
2022/10/15 02:46:36;;;;;;;;;;;;;;;;;;2098326;28;19963;-56
2022/10/15 02:47:37;;;;;;;;;;;;;;;;;;2098572;28;19928;-56
2022/10/15 02:48:38;;;;;;;;;;;;;;;;;;2098467;28;20376;-56
2022/10/15 02:49:39;;;;;;;;;;;;;;;;;;2098537;28;19924;-56
2022/10/15 02:50:40;;;;;;;;;;;;;;;;;;2098369;28;20015;-56
2022/10/15 02:51:40;;;;;;;;;;;;;;;;;;2104260;28;19960;-56
2022/10/15 02:52:41;;;;;;;;;;;;;;;;;;2106723;28;19928;-56
2022/10/15 02:53:42;;;;;;;;;;;;;;;;;;2106769;28;19920;-56
2022/10/15 02:54:43;;;;;;;;;;;;;;;;;;2106808;28;19920;-56
2022/10/15 02:55:45;;;;;;;;;;;;;;;;;;2106663;28;19927;-56
2022/10/15 02:56:46;;;;;;;;;;;;;;;;;;2106715;28;20353;-56
2022/10/15 02:57:47;;;;;;;;;;;;;;;;;;2106942;28;19930;-56
2022/10/15 02:58:48;;;;;;;;;;;;;;;;;;2106702;28;19983;-56
2022/10/15 02:59:49;;;;;;;;;;;;;;;;;;2106710;28;19977;-56
2022/10/15 03:00:49;;;;;;;;;;;;;;;;;;2106823;28;19920;-56
2022/10/15 03:01:50;;;;;;;;;;;;;;;;;;2106589;28;19919;-56
2022/10/15 03:02:51;;;;;;;;;;;;;;;;;;2106810;28;19920;-56
2022/10/15 03:03:52;;;;;;;;;;;;;;;;;;2106803;28;20434;-56
2022/10/15 03:04:53;;;;;;;;;;;;;;;;;;2106683;28;19963;-56
2022/10/15 03:05:53;;;;;;;;;;;;;;;;;;2106808;28;20054;-56
2022/10/15 03:06:54;;;;;;;;;;;;;;;;;;2106592;28;20035;-55
2022/10/15 03:07:56;;;;;;;;;;;;;;;;;;2106670;28;19992;-56
2022/10/15 03:08:57;;;;;;;;;;;;;;;;;;2106641;28;20361;-56
2022/10/15 03:09:57;;;;;;;;;;;;;;;;;;2103769;28;19958;-56
2022/10/15 03:10:58;;;;;;;;;;;;;;;;;;2098300;28;19927;-56
2022/10/15 03:11:59;;;;;;;;;;;;;;;;;;2098206;28;19927;-55
2022/10/15 03:13:00;;;;;;;;;;;;;;;;;;2098332;28;19920;-55
2022/10/15 03:14:01;;;;;;;;;;;;;;;;;;2098230;28;20023;-56
2022/10/15 03:15:02;;;;;;;;;;;;;;;;;;2098371;28;19928;-55
2022/10/15 03:16:02;;;;;;;;;;;;;;;;;;2098352;28;19955;-56
2022/10/15 03:17:03;;;;;;;;;;;;;;;;;;2098341;28;20011;-55
2022/10/15 03:18:04;;;;;;;;;;;;;;;;;;2098259;28;19920;-56
2022/10/15 03:19:05;;;;;;;;;;;;;;;;;;2098352;28;20280;-56
2022/10/15 03:20:06;;;;;;;;;;;;;;;;;;2098202;28;19920;-56
2022/10/15 03:21:07;;;;;;;;;;;;;;;;;;2098379;28;20007;-56
2022/10/15 03:22:07;;;;;;;;;;;;;;;;;;2098186;28;20309;-55
2022/10/15 03:23:08;;;;;;;;;;;;;;;;;;2098223;28;19924;-56
2022/10/15 03:24:09;;;;;;;;;;;;;;;;;;2098182;28;19924;-56
2022/10/15 03:25:10;;;;;;;;;;;;;;;;;;2098311;28;19963;-56
2022/10/15 03:26:11;;;;;;;;;;;;;;;;;;2098144;28;19920;-56
2022/10/15 03:27:12;;;;;;;;;;;;;;;;;;2098126;28;19963;-56
2022/10/15 03:28:12;;;;;;;;;;;;;;;;;;2098328;28;19966;-56
2022/10/15 03:29:13;;;;;;;;;;;;;;;;;;2098243;28;19986;-55
2022/10/15 03:30:14;;;;;;;;;;;;;;;;;;2098283;28;19959;-56
2022/10/15 03:31:15;;;;;;;;;;;;;;;;;;2098148;28;19920;-56
2022/10/15 03:32:15;;;;;;;;;;;;;;;;;;2098042;28;19920;-56
2022/10/15 03:33:16;;;;;;;;;;;;;;;;;;2098169;28;19973;-56
2022/10/15 03:34:19;;;;;;;;;;;;;;;;;;2097998;28;20384;-56
2022/10/15 03:35:20;;;;;;;;;;;;;;;;;;2098079;28;19963;-56
2022/10/15 03:36:21;;;;;;;;;;;;;;;;;;2098237;28;19955;-56
2022/10/15 03:37:21;;;;;;;;;;;;;;;;;;2098170;28;20373;-56
2022/10/15 03:38:23;;;;;;;;;;;;;;;;;;2098100;28;20266;-56
2022/10/15 03:39:23;;;;;;;;;;;;;;;;;;2098122;28;19920;-56
2022/10/15 03:40:24;;;;;;;;;;;;;;;;;;2098154;28;19921;-56
2022/10/15 03:41:25;;;;;;;;;;;;;;;;;;2098229;28;19920;-56
2022/10/15 03:42:26;;;;;;;;;;;;;;;;;;2098051;28;19920;-56
2022/10/15 03:43:27;;;;;;;;;;;;;;;;;;2098233;28;19974;-56
2022/10/15 03:44:28;;;;;;;;;;;;;;;;;;2098196;28;20414;-56
2022/10/15 03:45:28;;;;;;;;;;;;;;;;;;2098090;28;19924;-56
2022/10/15 03:46:29;;;;;;;;;;;;;;;;;;2096883;28;19959;-56
2022/10/15 03:47:30;;;;;;;;;;;;;;;;;;2099840;28;19920;-56
2022/10/15 03:48:31;;;;;;;;;;;;;;;;;;2106425;28;19920;-56
2022/10/15 03:49:32;;;;;;;;;;;;;;;;;;2106339;28;19920;-56
2022/10/15 03:50:33;;;;;;;;;;;;;;;;;;2106430;28;20023;-56
2022/10/15 03:51:33;;;;;;;;;;;;;;;;;;2106351;28;20365;-56
2022/10/15 03:52:34;;;;;;;;;;;;;;;;;;2106498;28;19951;-56
2022/10/15 03:53:35;;;;;;;;;;;;;;;;;;2106500;28;20376;-56
2022/10/15 03:54:36;;;;;;;;;;;;;;;;;;2106506;28;19920;-56
2022/10/15 03:55:37;;;;;;;;;;;;;;;;;;2106514;28;19920;-56
2022/10/15 03:56:38;;;;;;;;;;;;;;;;;;2106333;28;19974;-55
2022/10/15 03:57:38;;;;;;;;;;;;;;;;;;2106347;28;19924;-56
2022/10/15 03:58:40;;;;;;;;;;;;;;;;;;2106307;28;19924;-56
2022/10/15 03:59:40;;;;;;;;;;;;;;;;;;2106510;28;19919;-56
2022/10/15 04:00:41;;;;;;;;;;;;;;;;;;2106339;28;19974;-56
2022/10/15 04:01:42;;;;;;;;;;;;;;;;;;2106258;28;19920;-56
2022/10/15 04:02:43;;;;;;;;;;;;;;;;;;2106452;28;19974;-56
2022/10/15 04:03:44;;;;;;;;;;;;;;;;;;2106455;28;19927;-56
2022/10/15 04:04:45;;;;;;;;;;;;;;;;;;2106272;28;19970;-56
2022/10/15 04:05:45;;;;;;;;;;;;;;;;;;2106448;28;19920;-56
2022/10/15 04:06:49;;;;;;;;;;;;;;;;;;2106334;28;19920;-55
2022/10/15 04:07:50;;;;;;;;;;;;;;;;;;2106284;28;19920;-56
2022/10/15 04:08:51;;;;;;;;;;;;;;;;;;2106299;28;19920;-56
2022/10/15 04:09:56;;;;;;;;;;;;;;;;;;2103571;28;19920;-56
2022/10/15 04:10:58;;;;;;;;;;;;;;;;;;2098044;28;19927;-56
2022/10/15 04:11:59;;;;;;;;;;;;;;;;;;2097894;28;19925;-56
2022/10/15 04:13:00;;;;;;;;;;;;;;;;;;2097942;28;20369;-56
2022/10/15 04:14:00;;;;;;;;;;;;;;;;;;2097972;28;19927;-56
2022/10/15 04:15:01;;;;;;;;;;;;;;;;;;2097849;28;19964;-56
2022/10/15 04:16:02;;;;;;;;;;;;;;;;;;2097979;28;20007;-56
2022/10/15 04:17:03;;;;;;;;;;;;;;;;;;2097966;28;20277;-56
2022/10/15 04:18:04;;;;;;;;;;;;;;;;;;2097856;28;20077;-55
2022/10/15 04:19:05;;;;;;;;;;;;;;;;;;2098044;28;19927;-56
2022/10/15 04:20:08;;;;;;;;;;;;;;;;;;2098024;28;19963;-56
2022/10/15 04:21:09;;;;;;;;;;;;;;;;;;2097852;28;19920;-56
2022/10/15 04:22:10;;;;;;;;;;;;;;;;;;2097939;28;19925;-56
2022/10/15 04:23:11;;;;;;;;;;;;;;;;;;2097869;28;20027;-56
2022/10/15 04:24:12;;;;;;;;;;;;;;;;;;2098022;28;19948;-56
2022/10/15 04:25:13;;;;;;;;;;;;;;;;;;2097867;28;19928;-56
2022/10/15 04:26:13;;;;;;;;;;;;;;;;;;2097894;28;20392;-55
2022/10/15 04:27:14;;;;;;;;;;;;;;;;;;2097768;28;19921;-56
2022/10/15 04:28:20;;;;;;;;;;;;;;;;;;2097993;28;19920;-56
2022/10/15 04:29:21;;;;;;;;;;;;;;;;;;2097814;28;19921;-56
2022/10/15 04:30:21;;;;;;;;;;;;;;;;;;2097858;28;20014;-56
2022/10/15 04:31:22;;;;;;;;;;;;;;;;;;2097807;28;19927;-56
2022/10/15 04:32:23;;;;;;;;;;;;;;;;;;2097782;28;19921;-56
2022/10/15 04:33:24;;;;;;;;;;;;;;;;;;2098020;28;19920;-56
2022/10/15 04:34:25;;;;;;;;;;;;;;;;;;2097774;28;20358;-56
2022/10/15 04:35:26;;;;;;;;;;;;;;;;;;2098021;28;19927;-56
2022/10/15 04:36:27;;;;;;;;;;;;;;;;;;2097850;28;19928;-56
2022/10/15 04:37:28;;;;;;;;;;;;;;;;;;2097826;28;19967;-56
2022/10/15 04:38:29;;;;;;;;;;;;;;;;;;2097766;28;20295;-56
2022/10/15 04:39:30;;;;;;;;;;;;;;;;;;2097807;28;20413;-56
2022/10/15 04:40:31;;;;;;;;;;;;;;;;;;2097893;28;19921;-56
2022/10/15 04:41:31;;;;;;;;;;;;;;;;;;2097700;28;19968;-56
2022/10/15 04:42:32;;;;;;;;;;;;;;;;;;2097817;28;19935;-56
2022/10/15 04:43:33;;;;;;;;;;;;;;;;;;2098397;28;19925;-55
2022/10/15 04:44:34;;;;;;;;;;;;;;;;;;2106313;28;19927;-56
2022/10/15 04:45:35;;;;;;;;;;;;;;;;;;2106144;28;19963;-56
2022/10/15 04:46:35;;;;;;;;;;;;;;;;;;2106080;28;19920;-56
2022/10/15 04:47:36;;;;;;;;;;;;;;;;;;2106211;28;20007;-56
2022/10/15 04:48:37;;;;;;;;;;;;;;;;;;2106275;28;20388;-56
2022/10/15 04:49:40;;;;;;;;;;;;;;;;;;2106170;28;19920;-56
2022/10/15 04:50:41;;;;;;;;;;;;;;;;;;2106235;28;19928;-56
2022/10/15 04:51:42;;;;;;;;;;;;;;;;;;2105997;28;19967;-56
2022/10/15 04:52:43;;;;;;;;;;;;;;;;;;2106040;28;19920;-55
2022/10/15 04:53:44;;;;;;;;;;;;;;;;;;2106227;28;19958;-56
2022/10/15 04:54:44;;;;;;;;;;;;;;;;;;2105977;28;20359;-55
2022/10/15 04:55:45;;;;;;;;;;;;;;;;;;2106153;28;19920;-56
2022/10/15 04:56:46;;;;;;;;;;;;;;;;;;2106157;28;20281;-56
2022/10/15 04:57:47;;;;;;;;;;;;;;;;;;2106863;28;20365;-56
2022/10/15 04:58:48;;;;;;;;;;;;;;;;;;2107555;28;19924;-55
2022/10/15 04:59:48;;;;;;;;;;;;;;;;;;2107543;28;19924;-56
2022/10/15 05:00:52;;;;;;;;;;;;;;;;;;2107456;28;19920;-56
2022/10/15 05:01:53;;;;;;;;;;;;;;;;;;2107535;28;20069;-55
2022/10/15 05:02:54;;;;;;;;;;;;;;;;;;2107595;28;20289;-55
2022/10/15 05:03:55;;;;;;;;;;;;;;;;;;2107460;28;19963;-56
2022/10/15 05:04:56;;;;;;;;;;;;;;;;;;2107475;28;20422;-56
2022/10/15 05:05:57;;;;;;;;;;;;;;;;;;2107413;28;20072;-56
2022/10/15 05:06:57;;;;;;;;;;;;;;;;;;2107540;28;19965;-56
2022/10/15 05:07:58;;;;;;;;;;;;;;;;;;2107557;28;19989;-56
2022/10/15 05:09:00;;;;;;;;;;;;;;;;;;2107481;28;19976;-56
2022/10/15 05:10:01;;;;;;;;;;;;;;;;;;2104043;28;19920;-56
2022/10/15 05:11:02;;;;;;;;;;;;;;;;;;2099258;28;19921;-44
2022/10/15 05:12:03;;;;;;;;;;;;;;;;;;2099011;28;19921;-44
2022/10/15 05:13:03;;;;;;;;;;;;;;;;;;2099041;28;19920;-44
2022/10/15 05:14:04;;;;;;;;;;;;;;;;;;2099206;28;19994;-44
2022/10/15 05:15:05;;;;;;;;;;;;;;;;;;2098766;28;19943;-44
2022/10/15 05:16:06;;;;;;;;;;;;;;;;;;2099161;28;19920;-44
2022/10/15 05:17:06;;;;;;;;;;;;;;;;;;2099060;28;19920;-44
2022/10/15 05:18:07;;;;;;;;;;;;;;;;;;2099010;28;19920;-44
2022/10/15 05:19:08;;;;;;;;;;;;;;;;;;2099100;28;19927;-44
2022/10/15 05:20:09;;;;;;;;;;;;;;;;;;2099119;28;20013;-43
2022/10/15 05:21:10;;;;;;;;;;;;;;;;;;2099075;28;20305;-44
2022/10/15 05:22:11;;;;;;;;;;;;;;;;;;2098947;28;19994;-44
2022/10/15 05:23:11;;;;;;;;;;;;;;;;;;2099100;28;19927;-44
2022/10/15 05:24:12;;;;;;;;;;;;;;;;;;2098957;28;19921;-44
2022/10/15 05:25:13;;;;;;;;;;;;;;;;;;2098998;28;19968;-44
2022/10/15 05:26:14;;;;;;;;;;;;;;;;;;2098976;28;20002;-44
2022/10/15 05:27:15;;;;;;;;;;;;;;;;;;2099078;28;19960;-44
2022/10/15 05:28:16;;;;;;;;;;;;;;;;;;2099020;28;20373;-44
2022/10/15 05:29:16;;;;;;;;;;;;;;;;;;2098955;28;19969;-44
2022/10/15 05:30:17;;;;;;;;;;;;;;;;;;2099015;28;19920;-44
2022/10/15 05:31:18;;;;;;;;;;;;;;;;;;2099095;28;19920;-44
2022/10/15 05:32:19;;;;;;;;;;;;;;;;;;2098852;28;19931;-44
2022/10/15 05:33:24;;;;;;;;;;;;;;;;;;2099188;28;19920;-44
2022/10/15 05:34:25;;;;;;;;;;;;;;;;;;2098958;28;20269;-44
2022/10/15 05:35:26;;;;;;;;;;;;;;;;;;2098907;28;20273;-44
2022/10/15 05:36:29;;;;;;;;;;;;;;;;;;2099054;28;19920;-44
2022/10/15 05:37:30;;;;;;;;;;;;;;;;;;2098883;28;19928;-44
2022/10/15 05:38:31;;;;;;;;;;;;;;;;;;2098883;28;19921;-44
2022/10/15 05:39:31;;;;;;;;;;;;;;;;;;2098974;28;19920;-44
2022/10/15 05:40:32;;;;;;;;;;;;;;;;;;2105296;28;20317;-44
2022/10/15 05:41:33;;;;;;;;;;;;;;;;;;2107248;28;19920;-44
2022/10/15 05:42:34;;;;;;;;;;;;;;;;;;2107259;28;19920;-44
2022/10/15 05:43:34;;;;;;;;;;;;;;;;;;2107210;28;19920;-44
2022/10/15 05:44:38;;;;;;;;;;;;;;;;;;2107242;28;20285;-44
2022/10/15 05:45:38;;;;;;;;;;;;;;;;;;2107433;28;20104;-44
2022/10/15 05:46:39;;;;;;;;;;;;;;;;;;2107084;28;19925;-44
2022/10/15 05:47:40;;;;;;;;;;;;;;;;;;2107217;28;19982;-44
2022/10/15 05:48:41;;;;;;;;;;;;;;;;;;2107183;28;19978;-44
2022/10/15 05:49:41;;;;;;;;;;;;;;;;;;2107188;28;19970;-44
2022/10/15 05:50:42;;;;;;;;;;;;;;;;;;2107233;28;19920;-44
2022/10/15 05:51:43;;;;;;;;;;;;;;;;;;2107095;28;20053;-44
2022/10/15 05:52:44;;;;;;;;;;;;;;;;;;2107129;28;19920;-44
2022/10/15 05:53:45;;;;;;;;;;;;;;;;;;2107152;28;19920;-44
2022/10/15 05:54:46;;;;;;;;;;;;;;;;;;2107154;28;20002;-44
2022/10/15 05:55:46;;;;;;;;;;;;;;;;;;2107082;28;20261;-44
2022/10/15 05:56:47;;;;;;;;;;;;;;;;;;2107075;28;19924;-44
2022/10/15 05:57:48;;;;;;;;;;;;;;;;;;2107167;28;19969;-44
2022/10/15 05:58:49;;;;;;;;;;;;;;;;;;2107234;28;19981;-44
2022/10/15 05:59:50;;;;;;;;;;;;;;;;;;2107134;28;19971;-44
2022/10/15 06:00:51;;;;;;;;;;;;;;;;;;2107250;28;20005;-44
2022/10/15 06:01:52;;;;;;;;;;;;;;;;;;2107097;28;20284;-44
2022/10/15 06:02:53;;;;;;;;;;;;;;;;;;2107218;28;19965;-44
2022/10/15 06:03:59;;;;;;;;;;;;;;;;;;2107124;28;19931;-44
2022/10/15 06:05:00;;;;;;;;;;;;;;;;;;2107063;28;19974;-44
2022/10/15 06:06:01;;;;;;;;;;;;;;;;;;2107071;28;19927;-44
2022/10/15 06:07:01;;;;;;;;;;;;;;;;;;2106934;28;19920;-44
2022/10/15 06:08:02;;;;;;;;;;;;;;;;;;2107161;28;19920;-45
2022/10/15 06:09:03;;;;;;;;;;;;;;;;;;2106326;28;20019;-44
2022/10/15 06:10:04;;;;;;;;;;;;;;;;;;2102893;28;19925;-44
2022/10/15 06:11:05;;;;;;;;;;;;;;;;;;2098720;28;19920;-44
2022/10/15 06:12:09;;;;;;;;;;;;;;;;;;2098767;28;19924;-44
2022/10/15 06:13:10;;;;;;;;;;;;;;;;;;2098794;28;20470;-44
2022/10/15 06:14:11;;;;;;;;;;;;;;;;;;2098624;28;19920;-44
2022/10/15 06:15:12;;;;;;;;;;;;;;;;;;2098534;28;19921;-44
2022/10/15 06:16:13;;;;;;;;;;;;;;;;;;2098619;28;20391;-44
2022/10/15 06:17:15;;;;;;;;;;;;;;;;;;2098808;28;19924;-44
2022/10/15 06:18:16;;;;;;;;;;;;;;;;;;2098636;28;19983;-44
2022/10/15 06:19:17;;;;;;;;;;;;;;;;;;2098770;28;19927;-44
2022/10/15 06:20:18;;;;;;;;;;;;;;;;;;2098588;28;19927;-44
2022/10/15 06:21:19;;;;;;;;;;;;;;;;;;2098757;28;20019;-44
2022/10/15 06:22:20;;;;;;;;;;;;;;;;;;2098557;28;19969;-44
2022/10/15 06:23:22;;;;;;;;;;;;;;;;;;2098729;28;20369;-44
2022/10/15 06:24:23;;;;;;;;;;;;;;;;;;2098604;28;19920;-44
2022/10/15 06:25:24;;;;;;;;;;;;;;;;;;2098537;28;19927;-44
2022/10/15 06:26:25;;;;;;;;;;;;;;;;;;2098520;28;19924;-44
2022/10/15 06:27:25;;;;;;;;;;;;;;;;;;2098646;28;19924;-44
2022/10/15 06:28:27;;;;;;;;;;;;;;;;;;2098702;28;20285;-44
2022/10/15 06:29:27;;;;;;;;;;;;;;;;;;2098549;28;20012;-44
2022/10/15 06:30:28;;;;;;;;;;;;;;;;;;2098548;28;19963;-44
2022/10/15 06:31:29;;;;;;;;;;;;;;;;;;2098523;28;19951;-44
2022/10/15 06:32:30;;;;;;;;;;;;;;;;;;2098488;28;20078;-44
2022/10/15 06:33:31;;;;;;;;;;;;;;;;;;2098471;28;19927;-44
2022/10/15 06:34:32;;;;;;;;;;;;;;;;;;2098480;28;19920;-44
2022/10/15 06:35:34;;;;;;;;;;;;;;;;;;2098492;28;19920;-44
2022/10/15 06:36:35;;;;;;;;;;;;;;;;;;2103765;28;19997;-44
2022/10/15 06:37:36;;;;;;;;;;;;;;;;;;2106813;28;19923;-44
2022/10/15 06:38:38;;;;;;;;;;;;;;;;;;2106838;28;19963;-44
2022/10/15 06:39:39;;;;;;;;;;;;;;;;;;2106860;28;19988;-44
2022/10/15 06:40:40;;;;;;;;;;;;;;;;;;2106827;28;19927;-44
2022/10/15 06:41:41;;;;;;;;;;;;;;;;;;2106773;28;19920;-44
2022/10/15 06:42:42;;;;;;;;;;;;;;;;;;2107014;28;19962;-44
2022/10/15 06:43:43;;;;;;;;;;;;;;;;;;2106957;28;19927;-44
2022/10/15 06:44:44;;;;;;;;;;;;;;;;;;2106737;28;20400;-45
2022/10/15 06:45:45;;;;;;;;;;;;;;;;;;2107004;28;19951;-44
2022/10/15 06:46:46;;;;;;;;;;;;;;;;;;2106900;28;19920;-44
2022/10/15 06:47:47;;;;;;;;;;;;;;;;;;2106907;28;19923;-44
2022/10/15 06:48:50;;;;;;;;;;;;;;;;;;2106808;28;19926;-44
2022/10/15 06:49:51;;;;;;;;;;;;;;;;;;2107011;28;20250;-44
2022/10/15 06:50:52;;;;;;;;;;;;;;;;;;2106892;28;19962;-44
2022/10/15 06:51:52;;;;;;;;;;;;;;;;;;2106685;28;20279;-45
2022/10/15 06:52:53;;;;;;;;;;;;;;;;;;2106761;28;19970;-45
2022/10/15 06:53:54;;;;;;;;;;;;;;;;;;2106810;28;19920;-45
2022/10/15 06:54:55;;;;;;;;;;;;;;;;;;2106832;28;19982;-44
2022/10/15 06:55:56;;;;;;;;;;;;;;;;;;2106661;28;20028;-45